Time;durP1;ratioP1;P1;durP2;ratioP2;P2;SDS_P1;SDS_P2;PMS_P1;PMS_P2;Temp;Humidity;BMP_temperature;BMP_pressure;BME280_temperature;BME280_humidity;BME280_pressure;Samples;Min_cycle;Max_cycle;Signal;HPM_P1;HPM_P2
2023/09/01 00:02:41;;;;;;;4.30;3.90;;;;;;;;;;6290973;28;20197;-70
2023/09/01 00:05:42;;;;;;;6.40;4.10;;;;;;;;;;6266072;28;20262;-70
2023/09/01 00:08:43;;;;;;;4.00;3.70;;;;;;;;;;6272217;28;20221;-70
2023/09/01 00:11:44;;;;;;;9.47;3.87;;;;;;;;;;6271991;28;20193;-70
2023/09/01 00:14:45;;;;;;;9.97;4.53;;;;;;;;;;6280908;28;20252;-70
2023/09/01 00:17:47;;;;;;;5.70;4.33;;;;;;;;;;6289144;28;20220;-70
2023/09/01 00:20:48;;;;;;;4.60;4.20;;;;;;;;;;6283925;28;20193;-70
2023/09/01 00:23:49;;;;;;;6.13;4.10;;;;;;;;;;6288814;28;20189;-70
2023/09/01 00:26:50;;;;;;;7.73;4.20;;;;;;;;;;6292855;28;20201;-70
2023/09/01 00:29:51;;;;;;;5.97;3.93;;;;;;;;;;6269397;28;20201;-70
2023/09/01 00:32:52;;;;;;;5.27;3.80;;;;;;;;;;6264631;28;20253;-70
2023/09/01 00:35:54;;;;;;;5.43;3.93;;;;;;;;;;6296840;28;20217;-70
2023/09/01 00:38:55;;;;;;;6.97;4.47;;;;;;;;;;6292648;28;20186;-70
2023/09/01 00:41:56;;;;;;;4.30;3.87;;;;;;;;;;6270025;28;20327;-70
2023/09/01 00:44:57;;;;;;;4.83;4.23;;;;;;;;;;6279899;28;20235;-70
2023/09/01 00:47:58;;;;;;;7.63;4.30;;;;;;;;;;6275612;28;20218;-70
2023/09/01 00:50:59;;;;;;;6.97;3.60;;;;;;;;;;6282398;28;20257;-70
2023/09/01 00:54:00;;;;;;;4.50;4.10;;;;;;;;;;6308991;28;20197;-70
2023/09/01 00:57:02;;;;;;;4.70;3.60;;;;;;;;;;6289213;28;20216;-70
2023/09/01 01:00:05;;;;;;;6.97;3.97;;;;;;;;;;6259793;28;20228;-70
2023/09/01 01:03:07;;;;;;;4.17;3.80;;;;;;;;;;6268679;28;20190;-70
2023/09/01 01:06:20;;;;;;;9.30;4.43;;;;;;;;;;6275247;28;20199;-70
2023/09/01 01:09:21;;;;;;;9.67;4.53;;;;;;;;;;6273860;28;20184;-70
2023/09/01 01:12:29;;;;;;;5.37;4.10;;;;;;;;;;6279506;28;20201;-70
2023/09/01 01:15:32;;;;;;;6.57;4.77;;;;;;;;;;6268369;28;20214;-70
2023/09/01 01:18:34;;;;;;;5.90;4.33;;;;;;;;;;6296125;28;20251;-70
2023/09/01 01:21:37;;;;;;;6.80;3.97;;;;;;;;;;6286962;28;20210;-70
2023/09/01 01:24:38;;;;;;;10.03;4.30;;;;;;;;;;6274489;28;20273;-70
2023/09/01 01:27:41;;;;;;;6.07;4.17;;;;;;;;;;6261273;28;20197;-70
2023/09/01 01:30:42;;;;;;;5.33;3.83;;;;;;;;;;6276294;28;20191;-70
2023/09/01 01:33:56;;;;;;;6.93;3.80;;;;;;;;;;6291595;28;20275;-70
2023/09/01 01:37:06;;;;;;;9.03;4.77;;;;;;;;;;6270505;28;20242;-70
2023/09/01 01:40:08;;;;;;;4.83;4.37;;;;;;;;;;6291265;28;20193;-70
2023/09/01 01:43:11;;;;;;;4.77;3.87;;;;;;;;;;6275738;28;20232;-70
2023/09/01 01:46:13;;;;;;;9.63;4.23;;;;;;;;;;6263885;28;20214;-70
2023/09/01 01:49:15;;;;;;;8.33;3.97;;;;;;;;;;6253589;28;20282;-70
2023/09/01 01:52:16;;;;;;;5.77;4.03;;;;;;;;;;6264509;28;20199;-70
2023/09/01 01:55:17;;;;;;;4.47;4.07;;;;;;;;;;6301613;28;20197;-70
2023/09/01 01:58:18;;;;;;;5.30;3.93;;;;;;;;;;6288902;28;20207;-70
2023/09/01 02:01:19;;;;;;;4.63;4.23;;;;;;;;;;6291338;28;20194;-70
2023/09/01 02:04:20;;;;;;;8.03;4.00;;;;;;;;;;6303956;28;20260;-70
2023/09/01 02:07:21;;;;;;;6.60;4.30;;;;;;;;;;6312961;28;20205;-70
2023/09/01 02:10:22;;;;;;;8.33;4.00;;;;;;;;;;6284441;28;20286;-70
2023/09/01 02:13:23;;;;;;;5.00;4.17;;;;;;;;;;6308426;28;20192;-70
2023/09/01 02:16:25;;;;;;;8.53;4.80;;;;;;;;;;6278701;28;20214;-70
2023/09/01 02:19:28;;;;;;;4.83;4.27;;;;;;;;;;6302119;28;20206;-70
2023/09/01 02:22:29;;;;;;;4.10;3.63;;;;;;;;;;6278102;28;20365;-70
2023/09/01 02:25:30;;;;;;;8.20;4.27;;;;;;;;;;6273061;28;20258;-70
2023/09/01 02:28:31;;;;;;;6.43;4.70;;;;;;;;;;6287892;28;20197;-70
2023/09/01 02:31:32;;;;;;;4.20;3.80;;;;;;;;;;6284471;28;20278;-70
2023/09/01 02:34:33;;;;;;;4.97;4.20;;;;;;;;;;6273995;28;20285;-70
2023/09/01 02:37:34;;;;;;;4.90;4.37;;;;;;;;;;6259269;28;20217;-70
2023/09/01 02:40:35;;;;;;;7.93;4.30;;;;;;;;;;6272952;28;20185;-70
2023/09/01 02:43:36;;;;;;;5.80;4.33;;;;;;;;;;6266747;28;20183;-70
2023/09/01 02:46:37;;;;;;;4.30;3.90;;;;;;;;;;6288540;28;20267;-70
2023/09/01 02:49:38;;;;;;;9.57;4.07;;;;;;;;;;6277737;28;20190;-70
2023/09/01 02:52:39;;;;;;;7.43;4.30;;;;;;;;;;6273257;28;20189;-70
2023/09/01 02:55:41;;;;;;;4.07;3.70;;;;;;;;;;6305135;28;20302;-70
2023/09/01 02:58:45;;;;;;;5.60;4.17;;;;;;;;;;6282386;28;20244;-70
2023/09/01 03:01:46;;;;;;;7.77;4.50;;;;;;;;;;6280284;28;20191;-70
2023/09/01 03:04:52;;;;;;;7.87;4.43;;;;;;;;;;6275133;28;20197;-70
2023/09/01 03:07:53;;;;;;;6.77;4.37;;;;;;;;;;6285307;28;20248;-70
2023/09/01 03:10:54;;;;;;;4.77;4.20;;;;;;;;;;6305044;28;20281;-70
2023/09/01 03:13:55;;;;;;;5.07;4.30;;;;;;;;;;6264503;28;20200;-70
2023/09/01 03:16:56;;;;;;;5.10;4.40;;;;;;;;;;6300319;28;20296;-70
2023/09/01 03:19:57;;;;;;;3.97;3.43;;;;;;;;;;6288275;28;20568;-70
2023/09/01 03:22:58;;;;;;;6.33;3.90;;;;;;;;;;6284856;28;20187;-70
2023/09/01 03:25:59;;;;;;;5.00;4.40;;;;;;;;;;6268994;28;20206;-70
2023/09/01 03:29:02;;;;;;;4.40;3.73;;;;;;;;;;6284173;28;20195;-70
2023/09/01 03:32:03;;;;;;;4.97;4.40;;;;;;;;;;6259509;28;20247;-70
2023/09/01 03:35:05;;;;;;;7.20;3.97;;;;;;;;;;6301845;28;20194;-70
2023/09/01 03:38:06;;;;;;;3.90;3.60;;;;;;;;;;6279986;28;20213;-70
2023/09/01 03:41:07;;;;;;;6.13;3.80;;;;;;;;;;6285659;28;20189;-70
2023/09/01 03:44:08;;;;;;;6.33;3.93;;;;;;;;;;6274248;28;20194;-70
2023/09/01 03:47:10;;;;;;;4.60;4.20;;;;;;;;;;6294273;28;20206;-70
2023/09/01 03:50:11;;;;;;;7.63;3.87;;;;;;;;;;6281262;28;20187;-70
2023/09/01 03:53:12;;;;;;;7.13;3.87;;;;;;;;;;6276518;28;20221;-70
2023/09/01 03:56:15;;;;;;;4.67;4.27;;;;;;;;;;6276682;28;20214;-70
2023/09/01 03:59:16;;;;;;;4.43;3.63;;;;;;;;;;6272265;28;20226;-70
2023/09/01 04:02:17;;;;;;;4.10;3.80;;;;;;;;;;6284018;28;20209;-70
2023/09/01 04:05:18;;;;;;;3.90;3.60;;;;;;;;;;6271080;28;20220;-70
2023/09/01 04:08:19;;;;;;;7.50;4.13;;;;;;;;;;6299065;28;20203;-71
2023/09/01 04:11:20;;;;;;;5.67;4.00;;;;;;;;;;6275469;28;20202;-71
2023/09/01 04:14:21;;;;;;;7.53;4.47;;;;;;;;;;6270929;28;20296;-72
2023/09/01 04:17:22;;;;;;;7.27;4.03;;;;;;;;;;6285951;28;20218;-70
2023/09/01 04:20:23;;;;;;;4.93;3.70;;;;;;;;;;6262730;28;20195;-71
2023/09/01 04:23:24;;;;;;;5.73;4.30;;;;;;;;;;6295548;28;20198;-71
2023/09/01 04:26:25;;;;;;;6.17;4.20;;;;;;;;;;6293241;28;20190;-69
2023/09/01 04:29:26;;;;;;;4.93;3.97;;;;;;;;;;6268914;28;20198;-68
2023/09/01 04:32:27;;;;;;;4.50;3.93;;;;;;;;;;6299414;28;20237;-71
2023/09/01 04:35:28;;;;;;;4.77;3.80;;;;;;;;;;6264641;28;20194;-67
2023/09/01 04:38:30;;;;;;;4.30;3.93;;;;;;;;;;6307276;28;20281;-71
2023/09/01 04:41:34;;;;;;;4.63;3.90;;;;;;;;;;6273079;28;20190;-70
2023/09/01 04:44:35;;;;;;;4.17;3.83;;;;;;;;;;6292100;28;20229;-71
2023/09/01 04:47:36;;;;;;;4.00;3.60;;;;;;;;;;6259860;28;20325;-72
2023/09/01 04:50:37;;;;;;;4.13;3.80;;;;;;;;;;6293730;28;20202;-71
2023/09/01 04:53:38;;;;;;;4.13;3.70;;;;;;;;;;6291385;28;20194;-71
2023/09/01 04:56:39;;;;;;;4.47;4.07;;;;;;;;;;6273765;28;20302;-71
2023/09/01 04:59:41;;;;;;;4.97;4.47;;;;;;;;;;6291467;28;20194;-71
2023/09/01 05:02:43;;;;;;;4.60;4.20;;;;;;;;;;6292901;28;20229;-71
2023/09/01 05:05:44;;;;;;;6.33;4.40;;;;;;;;;;6306973;28;20202;-71
2023/09/01 05:08:45;;;;;;;5.47;4.30;;;;;;;;;;6308663;28;20217;-72
2023/09/01 05:11:46;;;;;;;4.33;3.93;;;;;;;;;;6257766;28;20194;-72
2023/09/01 05:14:47;;;;;;;4.80;4.40;;;;;;;;;;6299984;28;20190;-72
2023/09/01 05:17:48;;;;;;;4.33;3.87;;;;;;;;;;6280158;28;20241;-70
2023/09/01 05:20:49;;;;;;;5.57;4.07;;;;;;;;;;6295305;28;20194;-70
2023/09/01 05:23:50;;;;;;;5.30;4.53;;;;;;;;;;6292678;28;20237;-67
2023/09/01 05:26:51;;;;;;;4.83;4.40;;;;;;;;;;6288511;28;20221;-70
2023/09/01 05:29:52;;;;;;;5.17;4.67;;;;;;;;;;6304168;28;20197;-69
2023/09/01 05:32:53;;;;;;;7.00;4.30;;;;;;;;;;6263835;28;20241;-68
2023/09/01 05:35:54;;;;;;;4.43;3.80;;;;;;;;;;6291696;28;20214;-68
2023/09/01 05:38:55;;;;;;;9.57;4.73;;;;;;;;;;6273638;28;20201;-66
2023/09/01 05:41:56;;;;;;;4.27;3.87;;;;;;;;;;6298783;28;20189;-69
2023/09/01 05:44:57;;;;;;;6.20;4.37;;;;;;;;;;6304093;28;20182;-69
2023/09/01 05:47:58;;;;;;;4.13;3.73;;;;;;;;;;6289254;28;20222;-75
2023/09/01 05:50:59;;;;;;;4.90;4.50;;;;;;;;;;6263020;28;20205;-72
2023/09/01 05:54:00;;;;;;;4.37;3.90;;;;;;;;;;6289953;28;20255;-70
2023/09/01 05:57:02;;;;;;;4.67;3.40;;;;;;;;;;6283078;28;20217;-69
2023/09/01 06:00:03;;;;;;;3.40;3.10;;;;;;;;;;6271710;28;20214;-68
2023/09/01 06:03:05;;;;;;;4.67;4.03;;;;;;;;;;6278016;28;20274;-69
2023/09/01 06:06:07;;;;;;;4.13;3.73;;;;;;;;;;6291283;28;20217;-69
2023/09/01 06:09:09;;;;;;;4.97;4.07;;;;;;;;;;6273502;28;20186;-68
2023/09/01 06:12:11;;;;;;;4.23;3.80;;;;;;;;;;6287536;28;20216;-68
2023/09/01 06:15:12;;;;;;;6.33;5.10;;;;;;;;;;6282040;28;20181;-68
2023/09/01 06:18:13;;;;;;;6.37;4.80;;;;;;;;;;6284888;28;20213;-68
2023/09/01 06:21:17;;;;;;;6.80;4.30;;;;;;;;;;6284010;28;20193;-68
2023/09/01 06:24:18;;;;;;;7.67;5.10;;;;;;;;;;6283816;28;20206;-68
2023/09/01 06:27:19;;;;;;;5.27;4.27;;;;;;;;;;6255311;28;20205;-68
2023/09/01 06:30:20;;;;;;;5.60;4.10;;;;;;;;;;6273541;28;20248;-68
2023/09/01 06:33:21;;;;;;;4.77;4.13;;;;;;;;;;6288018;28;20246;-68
2023/09/01 06:36:23;;;;;;;5.23;4.73;;;;;;;;;;6293934;28;20210;-68
2023/09/01 06:39:24;;;;;;;6.10;4.50;;;;;;;;;;6275100;28;20285;-68
2023/09/01 06:42:25;;;;;;;6.03;5.07;;;;;;;;;;6301131;28;20256;-68
2023/09/01 06:45:26;;;;;;;5.90;4.53;;;;;;;;;;6268055;28;20245;-68
2023/09/01 06:48:29;;;;;;;9.20;5.27;;;;;;;;;;6310180;28;20232;-68
2023/09/01 06:51:30;;;;;;;7.07;4.30;;;;;;;;;;6278960;28;20194;-68
2023/09/01 06:54:31;;;;;;;4.60;4.20;;;;;;;;;;6281092;28;20190;-68
2023/09/01 06:57:32;;;;;;;5.90;4.57;;;;;;;;;;6288515;28;20278;-68
2023/09/01 07:00:33;;;;;;;6.03;5.10;;;;;;;;;;6295562;28;20261;-68
2023/09/01 07:03:34;;;;;;;6.67;4.83;;;;;;;;;;6264455;28;20212;-68
2023/09/01 07:06:35;;;;;;;6.00;5.20;;;;;;;;;;6282637;28;20197;-69
2023/09/01 07:09:36;;;;;;;7.53;5.43;;;;;;;;;;6258449;28;20217;-69
2023/09/01 07:12:37;;;;;;;5.57;4.97;;;;;;;;;;6288420;28;20247;-69
2023/09/01 07:15:38;;;;;;;5.40;4.90;;;;;;;;;;6262398;28;20209;-69
2023/09/01 07:18:39;;;;;;;5.83;5.20;;;17.60;99.20;;;;;;6295387;28;20295;-68
2023/09/01 07:21:40;;;;;;;5.07;4.63;;;16.00;97.80;;;;;;6277796;28;20185;-68
2023/09/01 07:24:40;;;;;;;6.33;4.50;;;16.20;97.60;;;;;;6256134;28;20189;-68
2023/09/01 07:27:41;;;;;;;5.77;4.73;;;16.30;96.50;;;;;;6272594;28;20200;-68
2023/09/01 07:30:42;;;;;;;5.13;4.63;;;16.40;96.20;;;;;;6248640;28;20260;-68
2023/09/01 07:33:42;;;;;;;6.27;5.00;;;16.60;96.60;;;;;;6255754;28;20194;-68
2023/09/01 07:36:43;;;;;;;5.83;4.60;;;16.70;94.90;;;;;;6263297;28;20232;-69
2023/09/01 07:39:44;;;;;;;5.90;4.93;;;16.80;95.40;;;;;;6292178;28;20186;-69
2023/09/01 07:42:44;;;;;;;5.53;5.03;;;24.00;50.00;;;;;;6257090;28;20186;-70
2023/09/01 07:45:45;;;;;;;8.13;5.13;;;17.00;94.80;;;;;;6269737;28;20192;-69
2023/09/01 07:48:46;;;;;;;5.20;4.70;;;17.10;93.10;;;;;;6269372;28;20239;-76
2023/09/01 07:51:48;;;;;;;6.27;5.67;;;17.20;94.20;;;;;;6298593;28;20335;-74
2023/09/01 07:54:51;;;;;;;6.80;5.13;;;;;;;;;;6274917;28;20190;-68
2023/09/01 07:57:52;;;;;;;5.23;4.77;;;17.40;93.50;;;;;;6300926;28;20275;-68
2023/09/01 08:00:52;;;;;;;4.93;4.40;;;17.50;94.20;;;;;;6291008;28;20221;-71
2023/09/01 08:03:54;;;;;;;4.80;4.40;;;17.50;92.60;;;;;;6258533;28;20281;-69
2023/09/01 08:06:55;;;;;;;5.10;4.60;;;;;;;;;;6267430;28;20201;-70
2023/09/01 08:09:57;;;;;;;5.40;4.90;;;;;;;;;;6297265;28;20196;-70
2023/09/01 08:12:58;;;;;;;4.93;4.43;;;;;;;;;;6289693;28;20293;-70
2023/09/01 08:15:59;;;;;;;5.97;5.10;;;;;;;;;;6287364;28;20232;-70
2023/09/01 08:19:02;;;;;;;4.87;4.47;;;;;;;;;;6290503;28;20193;-70
2023/09/01 08:22:03;;;;;;;5.33;4.80;;;;;;;;;;6275040;28;20198;-70
2023/09/01 08:25:04;;;;;;;5.07;4.37;;;;;;;;;;6304520;28;20272;-70
2023/09/01 08:28:07;;;;;;;5.40;4.90;;;;;;;;;;6276029;28;20286;-71
2023/09/01 08:31:09;;;;;;;6.60;5.07;;;;;;;;;;6281709;28;20226;-71
2023/09/01 08:34:10;;;;;;;5.00;4.57;;;;;;;;;;6302291;28;20259;-71
2023/09/01 08:37:11;;;;;;;4.97;4.47;;;;;;;;;;6277835;28;20231;-71
2023/09/01 08:40:13;;;;;;;4.80;4.27;;;;;;;;;;6299965;28;20189;-71
2023/09/01 08:43:14;;;;;;;6.80;5.13;;;;;;;;;;6294737;28;20190;-70
2023/09/01 08:46:19;;;;;;;4.50;4.10;;;;;;;;;;6291453;28;20247;-70
2023/09/01 08:49:20;;;;;;;4.77;3.57;;;;;;;;;;6274456;28;20218;-72
2023/09/01 08:52:22;;;;;;;3.60;3.30;;;;;;;;;;6297764;28;20288;-74
2023/09/01 08:55:23;;;;;;;3.60;3.30;;;;;;;;;;6277967;28;20200;-74
2023/09/01 08:58:24;;;;;;;4.00;3.20;;;;;;;;;;6267530;28;20197;-74
2023/09/01 09:01:27;;;;;;;3.57;3.27;;;;;;;;;;6285478;28;20242;-68
2023/09/01 09:04:31;;;;;;;3.33;2.80;;;;;;;;;;6267451;28;20222;-70
2023/09/01 09:07:32;;;;;;;4.00;3.30;;;;;;;;;;6276724;28;20187;-69
2023/09/01 09:10:34;;;;;;;5.77;3.50;;;;;;;;;;6281347;28;20190;-70
2023/09/01 09:13:35;;;;;;;3.83;3.50;;;;;;;;;;6274943;28;20182;-70
2023/09/01 09:16:50;;;;;;;3.87;3.57;;;;;;;;;;6281723;28;20206;-70
2023/09/01 09:19:59;;;;;;;3.17;2.97;;;;;;;;;;6271473;28;20210;-70
2023/09/01 09:23:00;;;;;;;3.53;3.23;;;;;;;;;;6286565;28;20193;-70
2023/09/01 09:26:02;;;;;;;3.67;3.37;;;;;;;;;;6295534;28;20193;-70
2023/09/01 09:29:10;;;;;;;5.30;3.80;;;;;;;;;;6289343;28;20201;-69
2023/09/01 09:32:22;;;;;;;5.23;3.87;;;;;;;;;;6302313;28;20265;-70
2023/09/01 09:35:24;;;;;;;4.40;4.00;;;;;;;;;;6288771;28;20198;-71
2023/09/01 09:38:42;;;;;;;4.30;3.90;;;;;;;;;;6292344;28;20186;-72
2023/09/01 09:41:45;;;;;;;6.27;4.90;;;;;;;;;;6281685;28;20183;-71
2023/09/01 09:44:49;;;;;;;5.57;4.23;;;;;;;;;;6273246;28;20179;-71
2023/09/01 09:47:51;;;;;;;4.77;4.37;;;;;;;;;;6300375;28;20193;-68
2023/09/01 09:50:52;;;;;;;6.80;4.40;;;;;;;;;;6282184;28;20189;-70
2023/09/01 09:53:55;;;;;;;4.40;4.00;;;;;;;;;;6290076;28;20212;-71
2023/09/01 09:56:57;;;;;;;4.57;4.10;;;;;;;;;;6294978;28;20281;-70
2023/09/01 10:00:11;;;;;;;4.33;3.80;;;;;;;;;;6285087;28;20178;-71
2023/09/01 10:03:12;;;;;;;5.70;4.23;;;;;;;;;;6285755;28;20183;-68
2023/09/01 10:06:16;;;;;;;4.30;3.37;;;;;;;;;;6275076;28;20185;-70
2023/09/01 10:09:18;;;;;;;4.13;3.30;;;;;;;;;;6274333;28;20196;-70
2023/09/01 10:12:19;;;;;;;3.67;3.30;;;;;;;;;;6297821;28;20241;-70
2023/09/01 10:15:21;;;;;;;3.97;3.60;;;;;;;;;;6298153;28;20185;-70
2023/09/01 10:18:22;;;;;;;5.30;3.70;;;;;;;;;;6290391;28;20244;-69
2023/09/01 10:21:23;;;;;;;4.40;3.90;;;;;;;;;;6291615;28;20284;-69
2023/09/01 10:24:24;;;;;;;3.40;3.10;;;;;;;;;;6289975;28;20219;-69
2023/09/01 10:27:25;;;;;;;4.53;3.40;;;;;;;;;;6260993;28;20197;-69
2023/09/01 10:30:27;;;;;;;4.10;3.57;;;;;;;;;;6267023;28;20201;-69
2023/09/01 10:33:28;;;;;;;3.67;3.37;;;;;;;;;;6283807;28;20289;-70
2023/09/01 10:36:29;;;;;;;3.97;3.13;;;;;;;;;;6292874;28;20214;-69
2023/09/01 10:39:30;;;;;;;4.63;2.97;;;;;;;;;;6293896;28;20194;-70
2023/09/01 10:42:43;;;;;;;4.83;2.90;;;;;;;;;;6278885;28;20225;-70
2023/09/01 10:46:04;;;;;;;2.83;2.53;;;;;;;;;;6262798;28;20244;-70
2023/09/01 10:49:07;;;;;;;3.20;2.90;;;;;;;;;;6277499;28;20193;-70
2023/09/01 10:52:12;;;;;;;3.97;3.07;;;;;;;;;;6259512;28;20190;-70
2023/09/01 10:55:14;;;;;;;5.40;2.80;;;;;;;;;;6284927;28;20197;-70
2023/09/01 10:58:15;;;;;;;2.80;2.33;;;;;;;;;;6270376;28;20245;-70
2023/09/01 11:01:29;;;;;;;3.07;2.80;;;;;;;;;;6264379;28;20182;-70
2023/09/01 11:04:30;;;;;;;4.17;2.70;;;;;;;;;;6291140;28;20187;-70
2023/09/01 11:07:51;;;;;;;3.63;2.30;;;;;;;;;;6296847;28;20206;-70
2023/09/01 11:10:55;;;;;;;2.80;2.60;;;;;;;;;;6270773;28;20190;-70
2023/09/01 11:14:00;;;;;;;2.63;2.43;;;;;;;;;;6270943;28;20294;-70
2023/09/01 11:17:03;;;;;;;2.40;2.20;;;;;;;;;;6276105;28;20221;-70
2023/09/01 11:20:06;;;;;;;2.00;1.90;;;;;;;;;;6280027;28;20193;-70
2023/09/01 11:23:08;;;;;;;2.40;2.20;;;;;;;;;;6285456;28;20194;-70
2023/09/01 11:26:12;;;;;;;3.20;1.90;;;;;;;;;;6286092;28;20193;-70
2023/09/01 11:29:14;;;;;;;2.40;1.57;;;;;;;;;;6251540;28;20212;-70
2023/09/01 11:32:28;;;;;;;1.90;1.30;;;;;;;;;;6295570;28;20236;-70
2023/09/01 11:35:29;;;;;;;4.20;1.90;;;;;;;;;;6285918;28;20182;-70
2023/09/01 11:38:30;;;;;;;2.47;1.73;;;;;;;;;;6283568;28;20327;-70
2023/09/01 11:41:32;;;;;;;1.70;1.60;;;;;;;;;;6267372;28;20224;-70
2023/09/01 11:44:33;;;;;;;1.63;1.53;;;;;;;;;;6268555;28;20189;-70
2023/09/01 11:47:34;;;;;;;2.30;2.10;;;;;;;;;;6305502;28;20212;-70
2023/09/01 11:50:36;;;;;;;2.93;1.70;;;;;;;;;;6287764;28;20565;-70
2023/09/01 11:53:38;;;;;;;2.10;1.40;;;;;;;;;;6267257;28;20259;-70
2023/09/01 11:56:39;;;;;;;1.93;1.73;;;;;;;;;;6263898;28;20238;-70
2023/09/01 11:59:47;;;;;;;2.00;1.83;;;;;;;;;;6266435;28;20288;-70
2023/09/01 12:02:48;;;;;;;2.80;1.70;;;;;;;;;;6265625;28;20241;-70
2023/09/01 12:05:49;;;;;;;2.67;1.43;;;;;;;;;;6277349;28;20197;-70
2023/09/01 12:08:52;;;;;;;1.70;1.60;;;;;;;;;;6279741;28;20194;-70
2023/09/01 12:11:59;;;;;;;1.80;1.70;;;24.30;63.80;;;;;;6277113;28;20254;-70
2023/09/01 12:15:04;;;;;;;2.80;1.77;;;;;;;;;;6248503;28;20190;-70
2023/09/01 12:18:24;;;;;;;3.77;1.80;;;;;;;;;;6261524;28;20263;-69
2023/09/01 12:21:25;;;;;;;2.67;1.70;;;;;;;;;;6296830;28;20248;-69
2023/09/01 12:24:26;;;;;;;2.20;1.50;;;;;;;;;;6301462;28;20263;-68
2023/09/01 12:27:27;;;;;;;1.60;1.50;;;;;;;;;;6289064;28;20190;-69
2023/09/01 12:30:28;;;;;;;1.98;1.67;;;;;;;;;;6280352;28;20194;-69
2023/09/01 12:33:29;;;;;;;1.65;1.27;;;;;;;;;;6255133;28;20240;-69
2023/09/01 12:36:30;;;;;;;2.03;1.48;;;36.70;40.30;;;;;;6283950;28;20222;-70
2023/09/01 12:39:31;;;;;;;2.05;1.60;;;38.60;38.70;;;;;;6284624;28;20201;-70
2023/09/01 12:42:31;;;;;;;3.40;1.70;;;38.60;38.40;;;;;;6271084;28;20196;-74
2023/09/01 12:45:35;;;;;;;2.28;1.40;;;;;;;;;;6264725;28;20194;-73
2023/09/01 12:48:36;;;;;;;1.60;1.48;;;;;;;;;;6269320;28;20191;-71
2023/09/01 12:51:37;;;;;;;1.38;1.27;;;;;;;;;;6305880;28;20189;-74
2023/09/01 12:54:38;;;;;;;2.05;1.60;;;37.80;38.70;;;;;;6269352;28;20193;-74
2023/09/01 12:57:38;;;;;;;2.00;1.40;;;37.70;36.30;;;;;;6258957;28;20236;-75
2023/09/01 13:00:39;;;;;;;5.00;1.52;;;38.10;38.10;;;;;;6250181;28;20197;-75
2023/09/01 13:03:40;;;;;;;1.98;1.40;;;;;;;;;;6269749;28;20193;-73
2023/09/01 13:06:41;;;;;;;1.60;1.50;;;;;;;;;;6297263;28;20252;-73
2023/09/01 13:09:42;;;;;;;1.45;1.33;;;40.10;35.50;;;;;;6286660;28;20206;-71
2023/09/01 13:12:43;;;;;;;2.38;1.80;;;;;;;;;;6265203;28;20205;-68
2023/09/01 13:15:48;;;;;;;2.47;1.48;;;40.80;35.00;;;;;;6296674;28;20194;-69
2023/09/01 13:18:49;;;;;;;1.15;1.10;;;41.10;33.60;;;;;;6273447;28;20182;-68
2023/09/01 13:21:50;;;;;;;1.50;1.23;;;41.60;32.40;;;;;;6252697;28;20328;-68
2023/09/01 13:24:52;;;;;;;2.33;1.58;;;;;;;;;;6290274;28;20204;-68
2023/09/01 13:27:53;;;;;;;1.58;1.45;;;;;;;;;;6277683;28;20189;-68
2023/09/01 13:30:54;;;;;;;4.45;1.88;;;;;;;;;;6277902;28;20193;-68
2023/09/01 13:33:56;;;;;;;3.13;2.05;;;;;;;;;;6288709;28;20185;-68
2023/09/01 13:36:57;;;;;;;1.90;1.80;;;;;;;;;;6263939;28;20221;-68
2023/09/01 13:39:59;;;;;;;3.60;2.03;;;;;;;;;;6283395;28;20198;-68
2023/09/01 13:43:01;;;;;;;2.37;1.70;;;;;;;;;;6296849;28;20187;-68
2023/09/01 13:46:18;;;;;;;1.83;1.42;;;;;;;;;;6298099;28;20251;-68
2023/09/01 13:49:20;;;;;;;1.58;1.48;;;;;;;;;;6285751;28;20225;-68
2023/09/01 13:52:22;;;;;;;2.40;1.80;;;;;;;;;;6290024;28;20213;-68
2023/09/01 13:55:24;;;;;;;2.83;1.38;;;;;;;;;;6285604;28;20267;-68
2023/09/01 13:58:25;;;;;;;2.08;1.48;;;;;;;;;;6269191;28;20217;-68
2023/09/01 14:01:26;;;;;;;1.40;1.30;;;;;;;;;;6288622;28;20197;-68
2023/09/01 14:04:28;;;;;;;2.88;1.67;;;;;;;;;;6284279;28;20196;-68
2023/09/01 14:07:29;;;;;;;1.60;1.50;;;;;;;;;;6286708;28;20201;-68
2023/09/01 14:10:30;;;;;;;2.63;1.52;;;;;;;;;;6266019;28;20285;-68
2023/09/01 14:13:33;;;;;;;1.95;1.58;;;;;;;;;;6291309;28;20193;-68
2023/09/01 14:16:35;;;;;;;2.78;1.33;;;;;;;;;;6273663;28;20214;-68
2023/09/01 14:19:36;;;;;;;1.92;1.50;;;;;;;;;;6289898;28;20248;-68
2023/09/01 14:22:38;;;;;;;1.42;1.30;;;;;;;;;;6284182;28;20189;-68
2023/09/01 14:25:39;;;;;;;1.98;1.20;;;;;;;;;;6269401;28;20615;-68
2023/09/01 14:28:41;;;;;;;1.85;1.42;;;;;;;;;;6279368;28;20233;-69
2023/09/01 14:31:43;;;;;;;3.17;1.63;;;;;;;;;;6290584;28;20230;-69
2023/09/01 14:34:45;;;;;;;1.60;1.50;;;;;;;;;;6299905;28;20194;-68
2023/09/01 14:37:46;;;;;;;1.63;1.50;;;;;;;;;;6284651;28;20210;-67
2023/09/01 14:40:47;;;;;;;1.67;1.58;;;;;;;;;;6296203;28;20193;-67
2023/09/01 14:43:49;;;;;;;1.60;1.50;;;;;;;;;;6287928;28;20223;-69
2023/09/01 14:46:50;;;;;;;1.67;1.58;;;;;;;;;;6285993;28;20194;-67
2023/09/01 14:49:52;;;;;;;1.80;1.65;;;;;;;;;;6269162;28;20196;-68
2023/09/01 14:52:52;;;;;;;3.07;1.87;;;38.00;37.80;;;;;;6287298;28;20254;-67
2023/09/01 14:55:54;;;;;;;3.93;1.90;;;37.70;39.00;;;;;;6268164;28;20201;-66
2023/09/01 14:58:55;;;;;;;1.80;1.70;;;37.30;36.80;;;;;;6301205;28;20193;-67
2023/09/01 15:01:57;;;;;;;2.03;1.70;;;;;;;;;;6258792;28;20189;-66
2023/09/01 15:04:58;;;;;;;3.63;2.03;;;;;;;;;;6287275;28;20220;-66
2023/09/01 15:08:00;;;;;;;3.27;1.77;;;;;;;;;;6261026;28;20224;-66
2023/09/01 15:11:04;;;;;;;2.83;2.07;;;;;;;;;;6273288;28;20193;-66
2023/09/01 15:14:05;;;;;;;2.23;2.03;;;;;;;;;;6269914;28;20251;-66
2023/09/01 15:17:07;;;;;;;3.00;1.90;;;;;;;;;;6273250;28;20213;-66
2023/09/01 15:20:10;;;;;;;2.07;1.97;;;;;;;;;;6303895;28;20193;-66
2023/09/01 15:23:11;;;;;;;3.07;2.03;;;;;;;;;;6297963;28;20227;-66
2023/09/01 15:26:12;;;;;;;3.87;2.10;;;;;;;;;;6278231;28;20208;-66
2023/09/01 15:29:14;;;;;;;2.93;1.80;;;;;;;;;;6279952;28;20198;-66
2023/09/01 15:32:15;;;;;;;2.47;2.00;;;;;;;;;;6281519;28;20221;-67
2023/09/01 15:35:17;;;;;;;4.33;2.20;;;;;;;;;;6280784;28;20196;-66
2023/09/01 15:38:18;;;;;;;4.63;1.90;;;;;;;;;;6306713;28;20245;-67
2023/09/01 15:41:19;;;;;;;4.63;2.10;;;;;;;;;;6279972;28;20190;-67
2023/09/01 15:44:21;;;;;;;3.30;2.00;;;;;;;;;;6312170;28;20219;-65
2023/09/01 15:47:22;;;;;;;3.93;2.30;;;;;;;;;;6270131;28;20225;-66
2023/09/01 15:50:23;;;;;;;3.57;2.50;;;;;;;;;;6291333;28;20221;-68
2023/09/01 15:53:25;;;;;;;3.47;2.13;;;;;;;;;;6294474;28;20316;-71
2023/09/01 15:56:26;;;;;;;3.30;2.40;;;;;;;;;;6266776;28;20241;-68
2023/09/01 15:59:27;;;;;;;4.97;2.57;;;;;;;;;;6282991;28;20185;-66
2023/09/01 16:02:29;;;;;;;3.87;2.30;;;;;;;;;;6256645;28;20290;-65
2023/09/01 16:05:31;;;;;;;3.73;2.20;;;;;;;;;;6305034;28;20240;-67
2023/09/01 16:08:33;;;;;;;2.43;2.10;;;;;;;;;;6287724;28;20239;-67
2023/09/01 16:11:36;;;;;;;2.87;2.10;;;;;;;;;;6291771;28;20201;-63
2023/09/01 16:14:38;;;;;;;5.13;2.00;;;;;;;;;;6280136;28;20205;-64
2023/09/01 16:17:39;;;;;;;4.47;2.30;;;;;;;;;;6286598;28;20225;-65
2023/09/01 16:20:41;;;;;;;3.20;2.10;;;;;;;;;;6261190;28;20185;-67
2023/09/01 16:23:42;;;;;;;4.00;2.33;;;;;;;;;;6283100;28;20186;-64
2023/09/01 16:26:43;;;;;;;2.87;2.40;;;;;;;;;;6285195;28;20200;-65
2023/09/01 16:29:45;;;;;;;2.20;2.00;;;;;;;;;;6290822;28;20197;-65
2023/09/01 16:32:46;;;;;;;3.20;2.20;;;;;;;;;;6278918;28;20241;-65
2023/09/01 16:35:54;;;;;;;3.50;2.63;;;;;;;;;;6289622;28;20204;-65
2023/09/01 16:38:55;;;;;;;3.50;2.43;;;;;;;;;;6290799;28;20199;-65
2023/09/01 16:41:58;;;;;;;4.77;2.77;;;;;;;;;;6301536;28;20190;-65
2023/09/01 16:44:59;;;;;;;3.03;2.20;;;;;;;;;;6278510;28;20186;-65
2023/09/01 16:48:01;;;;;;;4.83;2.10;;;;;;;;;;6281746;28;20199;-65
2023/09/01 16:51:02;;;;;;;2.93;2.13;;;;;;;;;;6286541;28;20281;-67
2023/09/01 16:54:03;;;;;;;2.10;1.90;;;;;;;;;;6266858;28;20190;-68
2023/09/01 16:57:04;;;;;;;4.93;2.53;;;;;;;;;;6271701;28;20308;-68
2023/09/01 17:00:06;;;;;;;2.10;1.90;;;;;;;;;;6287575;28;20189;-69
2023/09/01 17:03:08;;;;;;;3.07;2.53;;;;;;;;;;6275788;28;20200;-68
2023/09/01 17:06:09;;;;;;;5.47;2.60;;;;;;;;;;6260537;28;20226;-68
2023/09/01 17:09:11;;;;;;;5.10;2.40;;;;;;;;;;6269017;28;20194;-68
2023/09/01 17:12:12;;;;;;;3.53;2.17;;;;;;;;;;6289565;28;20219;-68
2023/09/01 17:15:15;;;;;;;5.83;3.00;;;;;;;;;;6285563;28;20202;-68
2023/09/01 17:18:16;;;;;;;4.80;2.40;;;;;;;;;;6283940;28;20275;-70
2023/09/01 17:21:17;;;;;;;8.40;2.43;;;;;;;;;;6289570;28;20197;-70
2023/09/01 17:24:19;;;;;;;3.27;2.20;;;;;;;;;;6271588;28;20193;-69
2023/09/01 17:27:20;;;;;;;6.43;2.70;;;;;;;;;;6262590;28;20289;-69
2023/09/01 17:30:21;;;;;;;4.43;2.70;;;;;;;;;;6259905;28;20196;-69
2023/09/01 17:33:23;;;;;;;6.87;3.00;;;;;;;;;;6283766;28;20248;-69
2023/09/01 17:36:24;;;;;;;5.07;2.70;;;;;;;;;;6282732;28;20218;-69
2023/09/01 17:39:25;;;;;;;5.90;3.10;;;;;;;;;;6295968;28;20193;-68
2023/09/01 17:42:27;;;;;;;4.23;2.80;;;;;;;;;;6285773;28;20243;-72
2023/09/01 17:45:28;;;;;;;5.00;2.47;;;;;;;;;;6282426;28;20233;-71
2023/09/01 17:48:30;;;;;;;4.73;2.60;;;;;;;;;;6289658;28;20198;-72
2023/09/01 17:51:31;;;;;;;4.70;2.87;;;;;;;;;;6283960;28;20210;-70
2023/09/01 17:54:33;;;;;;;4.50;2.50;;;;;;;;;;6274115;28;20243;-72
2023/09/01 17:57:34;;;;;;;4.57;2.83;;;;;;;;;;6273476;28;20226;-72
2023/09/01 18:00:36;;;;;;;4.80;2.83;;;;;;;;;;6289956;28;20194;-69